sensor_id;sensor_type;location;lat;lon;timestamp;temperature;humidity
8611;DHT22;4343;53.648;10.098;2024-01-11T00:02:21;-1.50;99.90
8611;DHT22;4343;53.648;10.098;2024-01-11T00:04:46;-1.50;99.90
8611;DHT22;4343;53.648;10.098;2024-01-11T00:07:12;-1.50;99.90
8611;DHT22;4343;53.648;10.098;2024-01-11T00:09:47;-1.50;99.90
8611;DHT22;4343;53.648;10.098;2024-01-11T00:12:12;-1.50;99.90
8611;DHT22;4343;53.648;10.098;2024-01-11T00:14:38;-1.50;99.90
8611;DHT22;4343;53.648;10.098;2024-01-11T00:17:03;-1.50;99.90
8611;DHT22;4343;53.648;10.098;2024-01-11T00:19:29;-1.50;99.90
8611;DHT22;4343;53.648;10.098;2024-01-11T00:21:55;-1.50;99.90
8611;DHT22;4343;53.648;10.098;2024-01-11T00:24:20;-1.50;99.90
8611;DHT22;4343;53.648;10.098;2024-01-11T00:26:46;-1.40;99.90
8611;DHT22;4343;53.648;10.098;2024-01-11T00:29:11;-1.40;99.90
8611;DHT22;4343;53.648;10.098;2024-01-11T00:31:37;-1.40;99.90
8611;DHT22;4343;53.648;10.098;2024-01-11T00:34:03;-1.40;99.90
8611;DHT22;4343;53.648;10.098;2024-01-11T00:36:29;-1.40;99.90
8611;DHT22;4343;53.648;10.098;2024-01-11T00:38:55;-1.40;99.90
8611;DHT22;4343;53.648;10.098;2024-01-11T00:41:20;-1.40;99.90
8611;DHT22;4343;53.648;10.098;2024-01-11T00:43:46;-1.40;99.90
8611;DHT22;4343;53.648;10.098;2024-01-11T00:46:12;-1.40;99.90
8611;DHT22;4343;53.648;10.098;2024-01-11T00:48:37;-1.40;99.90
8611;DHT22;4343;53.648;10.098;2024-01-11T00:51:06;-1.40;99.90
8611;DHT22;4343;53.648;10.098;2024-01-11T00:53:31;-1.40;99.90
8611;DHT22;4343;53.648;10.098;2024-01-11T00:55:58;-1.40;99.90
8611;DHT22;4343;53.648;10.098;2024-01-11T00:58:24;-1.40;99.90
8611;DHT22;4343;53.648;10.098;2024-01-11T01:00:50;-1.40;99.90
8611;DHT22;4343;53.648;10.098;2024-01-11T01:03:15;-1.40;99.90
8611;DHT22;4343;53.648;10.098;2024-01-11T01:05:41;-1.40;99.90
8611;DHT22;4343;53.648;10.098;2024-01-11T01:08:07;-1.40;99.90
8611;DHT22;4343;53.648;10.098;2024-01-11T01:10:33;-1.40;99.90
8611;DHT22;4343;53.648;10.098;2024-01-11T01:12:58;-1.40;99.90
8611;DHT22;4343;53.648;10.098;2024-01-11T01:15:24;-1.40;99.90
8611;DHT22;4343;53.648;10.098;2024-01-11T01:17:49;-1.30;99.90
8611;DHT22;4343;53.648;10.098;2024-01-11T01:20:15;-1.40;99.90
8611;DHT22;4343;53.648;10.098;2024-01-11T01:22:40;-1.30;99.90
8611;DHT22;4343;53.648;10.098;2024-01-11T01:25:06;-1.30;99.90
8611;DHT22;4343;53.648;10.098;2024-01-11T01:27:32;-1.40;99.90
8611;DHT22;4343;53.648;10.098;2024-01-11T01:29:57;-1.30;99.90
8611;DHT22;4343;53.648;10.098;2024-01-11T01:32:23;-1.30;99.90
8611;DHT22;4343;53.648;10.098;2024-01-11T01:34:48;-1.40;99.90
8611;DHT22;4343;53.648;10.098;2024-01-11T01:37:14;-1.30;99.90
8611;DHT22;4343;53.648;10.098;2024-01-11T01:39:39;-1.40;99.90
8611;DHT22;4343;53.648;10.098;2024-01-11T01:42:05;-1.40;99.90
8611;DHT22;4343;53.648;10.098;2024-01-11T01:44:32;-1.30;99.90
8611;DHT22;4343;53.648;10.098;2024-01-11T01:46:58;-1.40;99.90
8611;DHT22;4343;53.648;10.098;2024-01-11T01:49:24;-1.30;99.90
8611;DHT22;4343;53.648;10.098;2024-01-11T01:51:51;-1.40;99.90
8611;DHT22;4343;53.648;10.098;2024-01-11T01:54:18;-1.40;99.90
8611;DHT22;4343;53.648;10.098;2024-01-11T01:56:44;-1.40;99.90
8611;DHT22;4343;53.648;10.098;2024-01-11T01:59:10;-1.40;99.90
8611;DHT22;4343;53.648;10.098;2024-01-11T02:01:36;-1.40;99.90
8611;DHT22;4343;53.648;10.098;2024-01-11T02:04:02;-1.40;99.90
8611;DHT22;4343;53.648;10.098;2024-01-11T02:06:28;-1.40;99.90
8611;DHT22;4343;53.648;10.098;2024-01-11T02:08:56;-1.40;99.90
8611;DHT22;4343;53.648;10.098;2024-01-11T02:11:22;-1.40;99.90
8611;DHT22;4343;53.648;10.098;2024-01-11T02:13:50;-1.40;99.90
8611;DHT22;4343;53.648;10.098;2024-01-11T02:16:15;-1.40;99.90
8611;DHT22;4343;53.648;10.098;2024-01-11T02:18:41;-1.40;99.90
8611;DHT22;4343;53.648;10.098;2024-01-11T02:21:09;-1.40;99.90
8611;DHT22;4343;53.648;10.098;2024-01-11T02:23:40;-1.40;99.90
8611;DHT22;4343;53.648;10.098;2024-01-11T02:26:07;-1.40;99.90
8611;DHT22;4343;53.648;10.098;2024-01-11T02:28:33;-1.40;99.90
8611;DHT22;4343;53.648;10.098;2024-01-11T02:30:58;-1.40;99.90
8611;DHT22;4343;53.648;10.098;2024-01-11T02:33:24;-1.30;99.90
8611;DHT22;4343;53.648;10.098;2024-01-11T02:35:50;-1.40;99.90
8611;DHT22;4343;53.648;10.098;2024-01-11T02:38:16;-1.40;99.90
8611;DHT22;4343;53.648;10.098;2024-01-11T02:40:42;-1.40;99.90
8611;DHT22;4343;53.648;10.098;2024-01-11T02:43:09;-1.40;99.90
8611;DHT22;4343;53.648;10.098;2024-01-11T02:45:36;-1.40;99.90
8611;DHT22;4343;53.648;10.098;2024-01-11T02:48:01;-1.40;99.90
8611;DHT22;4343;53.648;10.098;2024-01-11T02:50:27;-1.30;99.90
8611;DHT22;4343;53.648;10.098;2024-01-11T02:52:52;-1.40;99.90
8611;DHT22;4343;53.648;10.098;2024-01-11T02:55:18;-1.30;99.90
8611;DHT22;4343;53.648;10.098;2024-01-11T02:57:43;-1.30;99.90
8611;DHT22;4343;53.648;10.098;2024-01-11T03:00:09;-1.40;99.90
8611;DHT22;4343;53.648;10.098;2024-01-11T03:02:37;-1.30;99.90
8611;DHT22;4343;53.648;10.098;2024-01-11T03:05:03;-1.40;99.90
8611;DHT22;4343;53.648;10.098;2024-01-11T03:07:29;-1.30;99.90
8611;DHT22;4343;53.648;10.098;2024-01-11T03:09:55;-1.30;99.90
8611;DHT22;4343;53.648;10.098;2024-01-11T03:12:21;-1.30;99.90
8611;DHT22;4343;53.648;10.098;2024-01-11T03:14:47;-1.30;99.90
8611;DHT22;4343;53.648;10.098;2024-01-11T03:17:13;-1.30;99.90
8611;DHT22;4343;53.648;10.098;2024-01-11T03:19:40;-1.30;99.90
8611;DHT22;4343;53.648;10.098;2024-01-11T03:22:06;-1.40;99.90
8611;DHT22;4343;53.648;10.098;2024-01-11T03:24:32;-1.40;99.90
8611;DHT22;4343;53.648;10.098;2024-01-11T03:26:58;-1.40;99.90
8611;DHT22;4343;53.648;10.098;2024-01-11T03:29:23;-1.40;99.90
8611;DHT22;4343;53.648;10.098;2024-01-11T03:31:49;-1.40;99.90
8611;DHT22;4343;53.648;10.098;2024-01-11T03:34:14;-1.40;99.90
8611;DHT22;4343;53.648;10.098;2024-01-11T03:36:40;-1.40;99.90
8611;DHT22;4343;53.648;10.098;2024-01-11T03:39:05;-1.40;99.90
8611;DHT22;4343;53.648;10.098;2024-01-11T03:41:31;-1.40;99.90
8611;DHT22;4343;53.648;10.098;2024-01-11T03:43:57;-1.40;99.90
8611;DHT22;4343;53.648;10.098;2024-01-11T03:46:22;-1.40;99.90
8611;DHT22;4343;53.648;10.098;2024-01-11T03:48:48;-1.40;99.90
8611;DHT22;4343;53.648;10.098;2024-01-11T03:51:13;-1.40;99.90
8611;DHT22;4343;53.648;10.098;2024-01-11T03:53:39;-1.40;99.90
8611;DHT22;4343;53.648;10.098;2024-01-11T03:56:05;-1.40;99.90
8611;DHT22;4343;53.648;10.098;2024-01-11T03:58:30;-1.40;99.90
8611;DHT22;4343;53.648;10.098;2024-01-11T04:00:56;-1.40;99.90
8611;DHT22;4343;53.648;10.098;2024-01-11T04:03:21;-1.40;99.90
8611;DHT22;4343;53.648;10.098;2024-01-11T04:05:47;-1.40;99.90
8611;DHT22;4343;53.648;10.098;2024-01-11T04:08:13;-1.40;99.90
8611;DHT22;4343;53.648;10.098;2024-01-11T04:10:39;-1.40;99.90
8611;DHT22;4343;53.648;10.098;2024-01-11T04:13:07;-1.40;99.90
8611;DHT22;4343;53.648;10.098;2024-01-11T04:15:32;-1.40;99.90
8611;DHT22;4343;53.648;10.098;2024-01-11T04:17:57;-1.40;99.90
8611;DHT22;4343;53.648;10.098;2024-01-11T04:20:23;-1.40;99.90
8611;DHT22;4343;53.648;10.098;2024-01-11T04:22:49;-1.40;99.90
8611;DHT22;4343;53.648;10.098;2024-01-11T04:25:15;-1.40;99.90
8611;DHT22;4343;53.648;10.098;2024-01-11T04:27:41;-1.40;99.90
8611;DHT22;4343;53.648;10.098;2024-01-11T04:30:07;-1.40;99.90
8611;DHT22;4343;53.648;10.098;2024-01-11T04:32:32;-1.40;99.90
8611;DHT22;4343;53.648;10.098;2024-01-11T04:34:58;-1.40;99.90
8611;DHT22;4343;53.648;10.098;2024-01-11T04:37:23;-1.40;99.90
8611;DHT22;4343;53.648;10.098;2024-01-11T04:39:49;-1.40;99.90
8611;DHT22;4343;53.648;10.098;2024-01-11T04:42:14;-1.40;99.90
8611;DHT22;4343;53.648;10.098;2024-01-11T04:44:40;-1.40;99.90
8611;DHT22;4343;53.648;10.098;2024-01-11T04:47:05;-1.40;99.90
8611;DHT22;4343;53.648;10.098;2024-01-11T04:49:31;-1.40;99.90
8611;DHT22;4343;53.648;10.098;2024-01-11T04:51:56;-1.30;99.90
8611;DHT22;4343;53.648;10.098;2024-01-11T04:54:22;-1.30;99.90
8611;DHT22;4343;53.648;10.098;2024-01-11T04:56:48;-1.30;99.90
8611;DHT22;4343;53.648;10.098;2024-01-11T04:59:13;-1.30;99.90
8611;DHT22;4343;53.648;10.098;2024-01-11T05:01:39;-1.30;99.90
8611;DHT22;4343;53.648;10.098;2024-01-11T05:04:06;-1.30;99.90
8611;DHT22;4343;53.648;10.098;2024-01-11T05:06:32;-1.30;99.90
8611;DHT22;4343;53.648;10.098;2024-01-11T05:08:57;-1.40;99.90
8611;DHT22;4343;53.648;10.098;2024-01-11T05:11:23;-1.30;99.90
8611;DHT22;4343;53.648;10.098;2024-01-11T05:13:50;-1.30;99.90
8611;DHT22;4343;53.648;10.098;2024-01-11T05:16:25;-1.30;99.90
8611;DHT22;4343;53.648;10.098;2024-01-11T05:18:53;-1.30;99.90
8611;DHT22;4343;53.648;10.098;2024-01-11T05:21:18;-1.30;99.90
8611;DHT22;4343;53.648;10.098;2024-01-11T05:23:45;-1.30;99.90
8611;DHT22;4343;53.648;10.098;2024-01-11T05:26:13;-1.30;99.90
8611;DHT22;4343;53.648;10.098;2024-01-11T05:28:38;-1.30;99.90
8611;DHT22;4343;53.648;10.098;2024-01-11T05:31:09;-1.30;99.90
8611;DHT22;4343;53.648;10.098;2024-01-11T05:33:35;-1.30;99.90
8611;DHT22;4343;53.648;10.098;2024-01-11T05:36:00;-1.30;99.90
8611;DHT22;4343;53.648;10.098;2024-01-11T05:38:26;-1.30;99.90
8611;DHT22;4343;53.648;10.098;2024-01-11T05:40:51;-1.30;99.90
8611;DHT22;4343;53.648;10.098;2024-01-11T05:43:17;-1.30;99.90
8611;DHT22;4343;53.648;10.098;2024-01-11T05:45:43;-1.30;99.90
8611;DHT22;4343;53.648;10.098;2024-01-11T05:48:10;-1.30;99.90
8611;DHT22;4343;53.648;10.098;2024-01-11T05:50:36;-1.30;99.90
8611;DHT22;4343;53.648;10.098;2024-01-11T05:53:01;-1.30;99.90
8611;DHT22;4343;53.648;10.098;2024-01-11T05:55:27;-1.30;99.90
8611;DHT22;4343;53.648;10.098;2024-01-11T05:57:52;-1.30;99.90
8611;DHT22;4343;53.648;10.098;2024-01-11T06:00:18;-1.30;99.90
8611;DHT22;4343;53.648;10.098;2024-01-11T06:02:43;-1.30;99.90
8611;DHT22;4343;53.648;10.098;2024-01-11T06:05:09;-1.20;99.90
8611;DHT22;4343;53.648;10.098;2024-01-11T06:07:35;-1.20;99.90
8611;DHT22;4343;53.648;10.098;2024-01-11T06:10:01;-1.20;99.90
8611;DHT22;4343;53.648;10.098;2024-01-11T06:12:28;-1.20;99.90
8611;DHT22;4343;53.648;10.098;2024-01-11T06:14:54;-1.20;99.90
8611;DHT22;4343;53.648;10.098;2024-01-11T06:17:19;-1.30;99.90
8611;DHT22;4343;53.648;10.098;2024-01-11T06:19:45;-1.20;99.90
8611;DHT22;4343;53.648;10.098;2024-01-11T06:22:10;-1.20;99.90
8611;DHT22;4343;53.648;10.098;2024-01-11T06:24:36;-1.20;99.90
8611;DHT22;4343;53.648;10.098;2024-01-11T06:27:01;-1.20;99.90
8611;DHT22;4343;53.648;10.098;2024-01-11T06:29:27;-1.20;99.90
8611;DHT22;4343;53.648;10.098;2024-01-11T06:31:53;-1.30;99.90
8611;DHT22;4343;53.648;10.098;2024-01-11T06:34:18;-1.20;99.90
8611;DHT22;4343;53.648;10.098;2024-01-11T06:36:43;-1.20;99.90
8611;DHT22;4343;53.648;10.098;2024-01-11T06:39:09;-1.20;99.90
8611;DHT22;4343;53.648;10.098;2024-01-11T06:41:35;-1.20;99.90
8611;DHT22;4343;53.648;10.098;2024-01-11T06:44:01;-1.20;99.90
8611;DHT22;4343;53.648;10.098;2024-01-11T06:46:26;-1.20;99.90
8611;DHT22;4343;53.648;10.098;2024-01-11T06:48:52;-1.20;99.90
8611;DHT22;4343;53.648;10.098;2024-01-11T06:51:21;-1.20;99.90
8611;DHT22;4343;53.648;10.098;2024-01-11T06:53:47;-1.20;99.90
8611;DHT22;4343;53.648;10.098;2024-01-11T06:56:16;-1.20;99.90
8611;DHT22;4343;53.648;10.098;2024-01-11T06:58:43;-1.20;99.90
8611;DHT22;4343;53.648;10.098;2024-01-11T07:01:09;-1.20;99.90
8611;DHT22;4343;53.648;10.098;2024-01-11T07:03:35;-1.20;99.90
8611;DHT22;4343;53.648;10.098;2024-01-11T07:06:00;-1.20;99.90
8611;DHT22;4343;53.648;10.098;2024-01-11T07:08:26;-1.20;99.90
8611;DHT22;4343;53.648;10.098;2024-01-11T07:10:51;-1.20;99.90
8611;DHT22;4343;53.648;10.098;2024-01-11T07:13:17;-1.20;99.90
8611;DHT22;4343;53.648;10.098;2024-01-11T07:15:43;-1.20;99.90
8611;DHT22;4343;53.648;10.098;2024-01-11T07:18:09;-1.20;99.90
8611;DHT22;4343;53.648;10.098;2024-01-11T07:20:34;-1.20;99.90
8611;DHT22;4343;53.648;10.098;2024-01-11T07:23:00;-1.20;99.90
8611;DHT22;4343;53.648;10.098;2024-01-11T07:25:25;-1.20;99.90
8611;DHT22;4343;53.648;10.098;2024-01-11T07:27:51;-1.20;99.90
8611;DHT22;4343;53.648;10.098;2024-01-11T07:30:17;-1.20;99.90
8611;DHT22;4343;53.648;10.098;2024-01-11T07:32:46;-1.20;99.90
8611;DHT22;4343;53.648;10.098;2024-01-11T07:35:11;-1.20;99.90
8611;DHT22;4343;53.648;10.098;2024-01-11T07:37:38;-1.20;99.90
8611;DHT22;4343;53.648;10.098;2024-01-11T07:40:07;-1.20;99.90
8611;DHT22;4343;53.648;10.098;2024-01-11T07:42:37;-1.20;99.90
8611;DHT22;4343;53.648;10.098;2024-01-11T07:45:04;-1.10;99.90
8611;DHT22;4343;53.648;10.098;2024-01-11T07:47:30;-1.10;99.90
8611;DHT22;4343;53.648;10.098;2024-01-11T07:49:56;-1.20;99.90
8611;DHT22;4343;53.648;10.098;2024-01-11T07:52:21;-1.10;99.90
8611;DHT22;4343;53.648;10.098;2024-01-11T07:54:47;-1.10;99.90
8611;DHT22;4343;53.648;10.098;2024-01-11T07:57:12;-1.10;99.90
8611;DHT22;4343;53.648;10.098;2024-01-11T07:59:38;-1.10;99.90
8611;DHT22;4343;53.648;10.098;2024-01-11T08:02:04;-1.10;99.90
8611;DHT22;4343;53.648;10.098;2024-01-11T08:04:31;-1.10;99.90
8611;DHT22;4343;53.648;10.098;2024-01-11T08:06:57;-1.10;99.90
8611;DHT22;4343;53.648;10.098;2024-01-11T08:09:28;-1.10;99.90
8611;DHT22;4343;53.648;10.098;2024-01-11T08:11:54;-1.10;99.90
8611;DHT22;4343;53.648;10.098;2024-01-11T08:14:22;-1.10;99.90
8611;DHT22;4343;53.648;10.098;2024-01-11T08:16:47;-1.00;99.90
8611;DHT22;4343;53.648;10.098;2024-01-11T08:19:13;-1.00;99.90
8611;DHT22;4343;53.648;10.098;2024-01-11T08:21:40;-1.10;99.90
8611;DHT22;4343;53.648;10.098;2024-01-11T08:24:07;-1.00;99.90
8611;DHT22;4343;53.648;10.098;2024-01-11T08:26:32;-1.00;99.90
8611;DHT22;4343;53.648;10.098;2024-01-11T08:28:58;-1.00;99.90
8611;DHT22;4343;53.648;10.098;2024-01-11T08:31:23;-1.00;99.90
8611;DHT22;4343;53.648;10.098;2024-01-11T08:33:49;-1.00;99.90
8611;DHT22;4343;53.648;10.098;2024-01-11T08:36:16;-1.00;99.90
8611;DHT22;4343;53.648;10.098;2024-01-11T08:38:41;-1.00;99.90
8611;DHT22;4343;53.648;10.098;2024-01-11T08:41:07;-0.90;99.90
8611;DHT22;4343;53.648;10.098;2024-01-11T08:43:33;-0.90;99.90
8611;DHT22;4343;53.648;10.098;2024-01-11T08:45:59;-0.90;99.90
8611;DHT22;4343;53.648;10.098;2024-01-11T08:48:25;-0.90;99.90
8611;DHT22;4343;53.648;10.098;2024-01-11T08:50:50;-0.90;99.90
8611;DHT22;4343;53.648;10.098;2024-01-11T08:53:16;-0.90;99.90
8611;DHT22;4343;53.648;10.098;2024-01-11T08:55:42;-0.80;99.90
8611;DHT22;4343;53.648;10.098;2024-01-11T08:58:08;-0.80;99.90
8611;DHT22;4343;53.648;10.098;2024-01-11T09:00:33;-0.90;99.90
8611;DHT22;4343;53.648;10.098;2024-01-11T09:02:59;-0.80;99.90
8611;DHT22;4343;53.648;10.098;2024-01-11T09:05:25;-0.80;99.90
8611;DHT22;4343;53.648;10.098;2024-01-11T09:07:50;-0.80;99.90
8611;DHT22;4343;53.648;10.098;2024-01-11T09:10:16;-0.80;99.90
8611;DHT22;4343;53.648;10.098;2024-01-11T09:12:41;-0.70;99.90
8611;DHT22;4343;53.648;10.098;2024-01-11T09:15:07;-0.70;99.90
8611;DHT22;4343;53.648;10.098;2024-01-11T09:17:33;-0.70;99.90
8611;DHT22;4343;53.648;10.098;2024-01-11T09:19:58;-0.70;99.90
8611;DHT22;4343;53.648;10.098;2024-01-11T09:22:24;-0.70;99.90
8611;DHT22;4343;53.648;10.098;2024-01-11T09:24:50;-0.60;99.90
8611;DHT22;4343;53.648;10.098;2024-01-11T09:27:15;-0.60;99.90
8611;DHT22;4343;53.648;10.098;2024-01-11T09:29:45;-0.60;99.90
8611;DHT22;4343;53.648;10.098;2024-01-11T09:32:10;-0.60;99.90
8611;DHT22;4343;53.648;10.098;2024-01-11T09:34:36;-0.60;99.90
8611;DHT22;4343;53.648;10.098;2024-01-11T09:37:02;-0.60;99.90
8611;DHT22;4343;53.648;10.098;2024-01-11T09:39:29;-0.60;99.90
8611;DHT22;4343;53.648;10.098;2024-01-11T09:42:12;-0.50;99.90
8611;DHT22;4343;53.648;10.098;2024-01-11T09:44:38;-0.50;99.90
8611;DHT22;4343;53.648;10.098;2024-01-11T09:47:06;-0.50;99.90
8611;DHT22;4343;53.648;10.098;2024-01-11T09:49:33;-0.50;99.90
8611;DHT22;4343;53.648;10.098;2024-01-11T09:52:02;-0.50;99.90
8611;DHT22;4343;53.648;10.098;2024-01-11T09:54:28;-0.50;99.90
8611;DHT22;4343;53.648;10.098;2024-01-11T09:56:54;-0.50;99.90
8611;DHT22;4343;53.648;10.098;2024-01-11T09:59:24;-0.40;99.90
8611;DHT22;4343;53.648;10.098;2024-01-11T10:01:50;-0.40;99.90
8611;DHT22;4343;53.648;10.098;2024-01-11T10:04:17;-0.40;99.90
8611;DHT22;4343;53.648;10.098;2024-01-11T10:06:43;-0.40;99.90
8611;DHT22;4343;53.648;10.098;2024-01-11T10:09:09;-0.40;99.90
8611;DHT22;4343;53.648;10.098;2024-01-11T10:11:35;-0.30;99.90
8611;DHT22;4343;53.648;10.098;2024-01-11T10:14:01;-0.30;99.90
8611;DHT22;4343;53.648;10.098;2024-01-11T10:16:28;-0.30;99.90
8611;DHT22;4343;53.648;10.098;2024-01-11T10:18:55;-0.30;99.90
8611;DHT22;4343;53.648;10.098;2024-01-11T10:21:21;-0.30;99.90
8611;DHT22;4343;53.648;10.098;2024-01-11T10:23:47;-0.30;99.90
8611;DHT22;4343;53.648;10.098;2024-01-11T10:26:17;-0.20;99.90
8611;DHT22;4343;53.648;10.098;2024-01-11T10:28:46;-0.20;99.90
8611;DHT22;4343;53.648;10.098;2024-01-11T10:31:12;-0.20;99.90
8611;DHT22;4343;53.648;10.098;2024-01-11T10:33:40;-0.20;99.90
8611;DHT22;4343;53.648;10.098;2024-01-11T10:36:06;-0.20;99.90
8611;DHT22;4343;53.648;10.098;2024-01-11T10:38:36;-0.10;99.90
8611;DHT22;4343;53.648;10.098;2024-01-11T10:41:04;-0.10;99.90
8611;DHT22;4343;53.648;10.098;2024-01-11T10:43:31;-0.10;99.90
8611;DHT22;4343;53.648;10.098;2024-01-11T10:45:59;-0.10;99.90
8611;DHT22;4343;53.648;10.098;2024-01-11T10:48:30;-0.10;99.90
8611;DHT22;4343;53.648;10.098;2024-01-11T10:51:00;0.00;99.90
8611;DHT22;4343;53.648;10.098;2024-01-11T10:53:44;0.00;99.90
8611;DHT22;4343;53.648;10.098;2024-01-11T10:56:11;0.00;99.90
8611;DHT22;4343;53.648;10.098;2024-01-11T10:58:42;0.00;99.90
8611;DHT22;4343;53.648;10.098;2024-01-11T11:01:10;0.00;99.90
8611;DHT22;4343;53.648;10.098;2024-01-11T11:03:37;0.00;99.90
8611;DHT22;4343;53.648;10.098;2024-01-11T11:06:04;0.00;99.90
8611;DHT22;4343;53.648;10.098;2024-01-11T11:08:31;0.10;99.90
8611;DHT22;4343;53.648;10.098;2024-01-11T11:10:58;0.10;99.90
8611;DHT22;4343;53.648;10.098;2024-01-11T11:13:24;0.10;99.90
8611;DHT22;4343;53.648;10.098;2024-01-11T11:15:51;0.10;99.90
8611;DHT22;4343;53.648;10.098;2024-01-11T11:18:17;0.10;99.90
8611;DHT22;4343;53.648;10.098;2024-01-11T11:20:44;0.10;99.90
8611;DHT22;4343;53.648;10.098;2024-01-11T11:23:11;0.10;99.90
8611;DHT22;4343;53.648;10.098;2024-01-11T11:25:40;0.10;99.90
8611;DHT22;4343;53.648;10.098;2024-01-11T11:28:06;0.10;99.90
8611;DHT22;4343;53.648;10.098;2024-01-11T11:30:39;0.20;99.90
8611;DHT22;4343;53.648;10.098;2024-01-11T11:33:23;0.20;99.90
8611;DHT22;4343;53.648;10.098;2024-01-11T11:35:52;0.20;99.90
8611;DHT22;4343;53.648;10.098;2024-01-11T11:38:27;0.20;99.90
8611;DHT22;4343;53.648;10.098;2024-01-11T11:41:00;0.20;99.90
8611;DHT22;4343;53.648;10.098;2024-01-11T11:43:27;0.20;99.90
8611;DHT22;4343;53.648;10.098;2024-01-11T11:45:54;0.20;99.90
8611;DHT22;4343;53.648;10.098;2024-01-11T11:51:11;0.30;99.90
8611;DHT22;4343;53.648;10.098;2024-01-11T11:53:38;0.30;99.90
8611;DHT22;4343;53.648;10.098;2024-01-11T11:56:05;0.30;99.90
8611;DHT22;4343;53.648;10.098;2024-01-11T11:58:32;0.30;99.90
8611;DHT22;4343;53.648;10.098;2024-01-11T12:00:59;0.30;99.90
8611;DHT22;4343;53.648;10.098;2024-01-11T12:03:32;0.40;99.90
8611;DHT22;4343;53.648;10.098;2024-01-11T12:05:59;0.40;99.90
8611;DHT22;4343;53.648;10.098;2024-01-11T12:08:25;0.40;99.90
8611;DHT22;4343;53.648;10.098;2024-01-11T12:10:51;0.40;99.90
8611;DHT22;4343;53.648;10.098;2024-01-11T12:13:18;0.40;99.90
8611;DHT22;4343;53.648;10.098;2024-01-11T12:15:43;0.40;99.90
8611;DHT22;4343;53.648;10.098;2024-01-11T12:18:09;0.40;99.90
8611;DHT22;4343;53.648;10.098;2024-01-11T12:20:35;0.40;99.90
8611;DHT22;4343;53.648;10.098;2024-01-11T12:23:00;0.50;99.90
8611;DHT22;4343;53.648;10.098;2024-01-11T12:25:28;0.50;99.90
8611;DHT22;4343;53.648;10.098;2024-01-11T12:27:53;0.50;99.90
8611;DHT22;4343;53.648;10.098;2024-01-11T12:30:22;0.50;99.90
8611;DHT22;4343;53.648;10.098;2024-01-11T12:32:49;0.60;99.90
8611;DHT22;4343;53.648;10.098;2024-01-11T12:35:15;0.50;99.90
8611;DHT22;4343;53.648;10.098;2024-01-11T12:37:41;0.50;99.90
8611;DHT22;4343;53.648;10.098;2024-01-11T12:40:17;0.50;99.90
8611;DHT22;4343;53.648;10.098;2024-01-11T12:42:43;0.60;99.90
8611;DHT22;4343;53.648;10.098;2024-01-11T12:45:09;0.60;99.90
8611;DHT22;4343;53.648;10.098;2024-01-11T12:47:34;0.60;99.90
8611;DHT22;4343;53.648;10.098;2024-01-11T12:50:00;0.60;99.90
8611;DHT22;4343;53.648;10.098;2024-01-11T12:52:25;0.70;99.90
8611;DHT22;4343;53.648;10.098;2024-01-11T12:54:52;0.70;99.90
8611;DHT22;4343;53.648;10.098;2024-01-11T12:57:19;0.70;99.90
8611;DHT22;4343;53.648;10.098;2024-01-11T12:59:45;0.70;99.90
8611;DHT22;4343;53.648;10.098;2024-01-11T13:02:11;0.70;99.90
8611;DHT22;4343;53.648;10.098;2024-01-11T13:04:39;0.70;99.90
8611;DHT22;4343;53.648;10.098;2024-01-11T13:07:06;0.70;99.90
8611;DHT22;4343;53.648;10.098;2024-01-11T13:09:32;0.70;99.90
8611;DHT22;4343;53.648;10.098;2024-01-11T13:11:58;0.70;99.90
8611;DHT22;4343;53.648;10.098;2024-01-11T13:14:24;0.80;99.90
8611;DHT22;4343;53.648;10.098;2024-01-11T13:16:50;0.80;99.90
8611;DHT22;4343;53.648;10.098;2024-01-11T13:19:15;0.80;99.90
8611;DHT22;4343;53.648;10.098;2024-01-11T13:21:41;0.80;99.90
8611;DHT22;4343;53.648;10.098;2024-01-11T13:24:06;0.80;99.90
8611;DHT22;4343;53.648;10.098;2024-01-11T13:26:35;0.80;99.90
8611;DHT22;4343;53.648;10.098;2024-01-11T13:29:04;0.80;99.90
8611;DHT22;4343;53.648;10.098;2024-01-11T13:31:31;0.80;99.90
8611;DHT22;4343;53.648;10.098;2024-01-11T13:33:56;0.80;99.90
8611;DHT22;4343;53.648;10.098;2024-01-11T13:36:22;0.80;99.90
8611;DHT22;4343;53.648;10.098;2024-01-11T13:38:48;0.90;99.90
8611;DHT22;4343;53.648;10.098;2024-01-11T13:41:16;0.90;99.90
8611;DHT22;4343;53.648;10.098;2024-01-11T13:43:43;0.90;99.90
8611;DHT22;4343;53.648;10.098;2024-01-11T13:46:09;0.90;99.90
8611;DHT22;4343;53.648;10.098;2024-01-11T13:48:34;0.90;99.90
8611;DHT22;4343;53.648;10.098;2024-01-11T13:51:01;0.90;99.90
8611;DHT22;4343;53.648;10.098;2024-01-11T13:53:29;0.90;99.90
8611;DHT22;4343;53.648;10.098;2024-01-11T13:55:54;0.90;99.90
8611;DHT22;4343;53.648;10.098;2024-01-11T13:58:21;0.90;99.90
8611;DHT22;4343;53.648;10.098;2024-01-11T14:00:46;0.90;99.90
8611;DHT22;4343;53.648;10.098;2024-01-11T14:03:12;1.00;99.90
8611;DHT22;4343;53.648;10.098;2024-01-11T14:05:38;0.90;99.90
8611;DHT22;4343;53.648;10.098;2024-01-11T14:08:03;0.90;99.90
8611;DHT22;4343;53.648;10.098;2024-01-11T14:10:32;1.00;99.90
8611;DHT22;4343;53.648;10.098;2024-01-11T14:12:58;1.00;99.90
8611;DHT22;4343;53.648;10.098;2024-01-11T14:15:23;1.00;99.90
8611;DHT22;4343;53.648;10.098;2024-01-11T14:17:49;1.00;99.90
8611;DHT22;4343;53.648;10.098;2024-01-11T14:20:15;1.00;99.90
8611;DHT22;4343;53.648;10.098;2024-01-11T14:22:41;1.00;99.90
8611;DHT22;4343;53.648;10.098;2024-01-11T14:25:07;1.00;99.90
8611;DHT22;4343;53.648;10.098;2024-01-11T14:27:32;1.00;99.90
8611;DHT22;4343;53.648;10.098;2024-01-11T14:29:58;1.00;99.90
8611;DHT22;4343;53.648;10.098;2024-01-11T14:32:24;1.00;99.90
8611;DHT22;4343;53.648;10.098;2024-01-11T14:34:52;1.00;99.90
8611;DHT22;4343;53.648;10.098;2024-01-11T14:37:17;1.00;99.90
8611;DHT22;4343;53.648;10.098;2024-01-11T14:39:43;1.00;99.90
8611;DHT22;4343;53.648;10.098;2024-01-11T14:42:08;1.00;99.90
8611;DHT22;4343;53.648;10.098;2024-01-11T14:44:35;1.00;99.90
8611;DHT22;4343;53.648;10.098;2024-01-11T14:47:01;1.00;99.90
8611;DHT22;4343;53.648;10.098;2024-01-11T14:49:26;1.00;99.90
8611;DHT22;4343;53.648;10.098;2024-01-11T14:51:53;1.00;99.90
8611;DHT22;4343;53.648;10.098;2024-01-11T14:54:19;1.00;99.90
8611;DHT22;4343;53.648;10.098;2024-01-11T14:56:48;1.00;99.90
8611;DHT22;4343;53.648;10.098;2024-01-11T14:59:14;1.00;99.90
8611;DHT22;4343;53.648;10.098;2024-01-11T15:01:39;1.00;99.90
8611;DHT22;4343;53.648;10.098;2024-01-11T15:04:05;1.00;99.90
8611;DHT22;4343;53.648;10.098;2024-01-11T15:06:30;1.00;99.90
8611;DHT22;4343;53.648;10.098;2024-01-11T15:08:56;1.00;99.90
8611;DHT22;4343;53.648;10.098;2024-01-11T15:11:21;1.00;99.90
8611;DHT22;4343;53.648;10.098;2024-01-11T15:13:47;1.00;99.90
8611;DHT22;4343;53.648;10.098;2024-01-11T15:16:12;1.00;99.90
8611;DHT22;4343;53.648;10.098;2024-01-11T15:18:38;1.00;99.90
8611;DHT22;4343;53.648;10.098;2024-01-11T15:21:03;1.00;99.90
8611;DHT22;4343;53.648;10.098;2024-01-11T15:23:29;1.00;99.90
8611;DHT22;4343;53.648;10.098;2024-01-11T15:25:54;1.00;99.90
8611;DHT22;4343;53.648;10.098;2024-01-11T15:28:20;1.00;99.90
8611;DHT22;4343;53.648;10.098;2024-01-11T15:30:45;1.00;99.90
8611;DHT22;4343;53.648;10.098;2024-01-11T15:33:11;1.00;99.90
8611;DHT22;4343;53.648;10.098;2024-01-11T15:35:36;1.00;99.90
8611;DHT22;4343;53.648;10.098;2024-01-11T15:38:02;1.00;99.90
8611;DHT22;4343;53.648;10.098;2024-01-11T15:40:27;1.00;99.90
8611;DHT22;4343;53.648;10.098;2024-01-11T15:42:53;1.00;99.90
8611;DHT22;4343;53.648;10.098;2024-01-11T15:45:18;1.00;99.90
8611;DHT22;4343;53.648;10.098;2024-01-11T15:47:44;1.00;99.90